sensor_id;sensor_type;location;lat;lon;timestamp;pressure;altitude;pressure_sealevel;temperature;humidity
63654;BME280;49809;47.418;19.080;2023-04-23T00:03:05;100295.31;;;7.89;88.12
63654;BME280;49809;47.418;19.080;2023-04-23T00:06:57;100297.38;;;7.87;89.70
63654;BME280;49809;47.418;19.080;2023-04-23T00:10:04;100297.28;;;7.82;89.87
63654;BME280;49809;47.418;19.080;2023-04-23T00:13:13;100289.28;;;7.77;90.03
63654;BME280;49809;47.418;19.080;2023-04-23T00:16:20;100294.53;;;7.77;90.17
63654;BME280;49809;47.418;19.080;2023-04-23T00:19:46;100284.37;;;7.69;90.28
63654;BME280;49809;47.418;19.080;2023-04-23T00:22:56;100289.53;;;7.64;90.31
63654;BME280;49809;47.418;19.080;2023-04-23T00:26:00;100288.72;;;7.63;90.05
63654;BME280;49809;47.418;19.080;2023-04-23T00:29:04;100288.84;;;7.68;90.18
63654;BME280;49809;47.418;19.080;2023-04-23T00:32:27;100288.13;;;7.73;91.09
63654;BME280;49809;47.418;19.080;2023-04-23T00:35:33;100285.63;;;7.66;90.49
63654;BME280;49809;47.418;19.080;2023-04-23T00:39:00;100282.56;;;7.58;90.06
63654;BME280;49809;47.418;19.080;2023-04-23T00:42:06;100289.06;;;7.55;90.28
63654;BME280;49809;47.418;19.080;2023-04-23T00:45:52;100288.75;;;7.52;89.93
63654;BME280;49809;47.418;19.080;2023-04-23T00:49:00;100283.34;;;7.47;89.28
63654;BME280;49809;47.418;19.080;2023-04-23T00:52:23;100277.97;;;7.41;89.55
63654;BME280;49809;47.418;19.080;2023-04-23T00:55:49;100275.25;;;7.36;89.76
63654;BME280;49809;47.418;19.080;2023-04-23T00:58:53;100280.06;;;7.39;89.89
63654;BME280;49809;47.418;19.080;2023-04-23T01:02:03;100271.94;;;7.29;89.96
63654;BME280;49809;47.418;19.080;2023-04-23T01:06:08;100274.91;;;7.33;91.33
63654;BME280;49809;47.418;19.080;2023-04-23T01:09:31;100275.47;;;7.23;91.58
63654;BME280;49809;47.418;19.080;2023-04-23T01:12:55;100279.03;;;7.17;91.55
63654;BME280;49809;47.418;19.080;2023-04-23T01:16:34;100278.22;;;7.17;91.89
63654;BME280;49809;47.418;19.080;2023-04-23T01:19:41;100276.66;;;7.16;93.01
63654;BME280;49809;47.418;19.080;2023-04-23T01:22:46;100274.59;;;7.06;93.47
63654;BME280;49809;47.418;19.080;2023-04-23T01:25:58;100278.03;;;7.07;93.83
63654;BME280;49809;47.418;19.080;2023-04-23T01:29:21;100278.03;;;7.07;93.55
63654;BME280;49809;47.418;19.080;2023-04-23T01:32:27;100277.09;;;7.01;93.43
63654;BME280;49809;47.418;19.080;2023-04-23T01:36:10;100273.53;;;6.95;93.40
63654;BME280;49809;47.418;19.080;2023-04-23T01:39:47;100275.16;;;6.96;93.70
63654;BME280;49809;47.418;19.080;2023-04-23T01:43:30;100276.59;;;6.92;94.99
63654;BME280;49809;47.418;19.080;2023-04-23T01:46:38;100274.66;;;6.88;94.98
63654;BME280;49809;47.418;19.080;2023-04-23T01:49:45;100273.84;;;6.87;95.33
63654;BME280;49809;47.418;19.080;2023-04-23T01:53:17;100275.25;;;6.90;95.79
63654;BME280;49809;47.418;19.080;2023-04-23T01:56:24;100285.66;;;6.85;95.77
63654;BME280;49809;47.418;19.080;2023-04-23T01:59:30;100265.62;;;6.84;95.61
63654;BME280;49809;47.418;19.080;2023-04-23T02:02:34;100266.66;;;6.83;96.62
63654;BME280;49809;47.418;19.080;2023-04-23T02:05:59;100272.84;;;6.77;96.33
63654;BME280;49809;47.418;19.080;2023-04-23T02:09:07;100264.34;;;6.75;96.62
63654;BME280;49809;47.418;19.080;2023-04-23T02:12:23;100263.81;;;6.73;96.24
63654;BME280;49809;47.418;19.080;2023-04-23T02:15:28;100260.47;;;6.66;96.72
63654;BME280;49809;47.418;19.080;2023-04-23T02:18:52;100268.38;;;6.77;98.04
63654;BME280;49809;47.418;19.080;2023-04-23T02:22:39;100263.09;;;6.66;97.21
63654;BME280;49809;47.418;19.080;2023-04-23T02:25:42;100263.56;;;6.63;97.41
63654;BME280;49809;47.418;19.080;2023-04-23T02:28:54;100260.34;;;6.61;97.87
63654;BME280;49809;47.418;19.080;2023-04-23T02:32:17;100262.25;;;6.53;97.70
63654;BME280;49809;47.418;19.080;2023-04-23T02:35:47;100260.06;;;6.50;97.79
63654;BME280;49809;47.418;19.080;2023-04-23T02:39:10;100257.91;;;6.47;98.22
63654;BME280;49809;47.418;19.080;2023-04-23T02:42:35;100259.16;;;6.45;98.20
63654;BME280;49809;47.418;19.080;2023-04-23T02:45:59;100258.34;;;6.44;98.32
63654;BME280;49809;47.418;19.080;2023-04-23T02:49:03;100259.25;;;6.38;98.69
63654;BME280;49809;47.418;19.080;2023-04-23T02:52:53;100256.38;;;6.40;98.48
63654;BME280;49809;47.418;19.080;2023-04-23T02:56:40;100254.22;;;6.37;98.89
63654;BME280;49809;47.418;19.080;2023-04-23T03:00:24;100243.22;;;6.28;98.87
63654;BME280;49809;47.418;19.080;2023-04-23T03:03:49;100250.87;;;6.30;99.58
63654;BME280;49809;47.418;19.080;2023-04-23T03:06:59;100246.41;;;6.30;99.51
63654;BME280;49809;47.418;19.080;2023-04-23T03:10:23;100240.22;;;6.25;99.52
63654;BME280;49809;47.418;19.080;2023-04-23T03:14:28;100249.38;;;6.22;99.40
63654;BME280;49809;47.418;19.080;2023-04-23T03:18:31;100245.13;;;6.21;99.53
63654;BME280;49809;47.418;19.080;2023-04-23T03:21:57;100240.56;;;6.17;99.44
63654;BME280;49809;47.418;19.080;2023-04-23T03:25:42;100233.47;;;6.17;99.29
63654;BME280;49809;47.418;19.080;2023-04-23T03:29:40;100244.66;;;6.12;99.58
63654;BME280;49809;47.418;19.080;2023-04-23T03:33:04;100250.25;;;6.16;99.64
63654;BME280;49809;47.418;19.080;2023-04-23T03:36:47;100246.81;;;6.04;100.00
63654;BME280;49809;47.418;19.080;2023-04-23T03:40:08;100246.69;;;6.10;100.00
63654;BME280;49809;47.418;19.080;2023-04-23T03:43:52;100252.62;;;6.06;100.00
63654;BME280;49809;47.418;19.080;2023-04-23T03:46:55;100251.94;;;6.10;99.66
63654;BME280;49809;47.418;19.080;2023-04-23T03:50:21;100258.91;;;6.05;100.00
63654;BME280;49809;47.418;19.080;2023-04-23T03:54:14;100256.28;;;6.05;99.95
63654;BME280;49809;47.418;19.080;2023-04-23T03:57:38;100258.91;;;6.05;100.00
63654;BME280;49809;47.418;19.080;2023-04-23T04:01:45;100259.34;;;6.02;100.00
63654;BME280;49809;47.418;19.080;2023-04-23T04:05:31;100257.53;;;6.02;100.00
63654;BME280;49809;47.418;19.080;2023-04-23T04:08:55;100267.97;;;6.09;100.00
63654;BME280;49809;47.418;19.080;2023-04-23T04:12:19;100258.91;;;6.05;100.00
63654;BME280;49809;47.418;19.080;2023-04-23T04:16:10;100265.34;;;6.09;100.00
63654;BME280;49809;47.418;19.080;2023-04-23T04:19:52;100264.41;;;6.15;100.00
63654;BME280;49809;47.418;19.080;2023-04-23T04:23:29;100276.81;;;6.26;100.00
63654;BME280;49809;47.418;19.080;2023-04-23T04:27:00;100280.38;;;6.32;100.00
63654;BME280;49809;47.418;19.080;2023-04-23T04:30:07;100276.53;;;6.46;99.80
63654;BME280;49809;47.418;19.080;2023-04-23T04:33:46;100276.88;;;6.49;99.80
63654;BME280;49809;47.418;19.080;2023-04-23T04:37:10;100275.53;;;6.59;99.70
63654;BME280;49809;47.418;19.080;2023-04-23T04:40:36;100283.66;;;6.69;99.29
63654;BME280;49809;47.418;19.080;2023-04-23T04:44:07;100282.09;;;6.79;98.53
63654;BME280;49809;47.418;19.080;2023-04-23T04:47:31;100287.59;;;6.89;98.53
63654;BME280;49809;47.418;19.080;2023-04-23T04:51:15;100299.84;;;7.07;98.35
63654;BME280;49809;47.418;19.080;2023-04-23T04:54:42;100290.94;;;7.31;96.38
63654;BME280;49809;47.418;19.080;2023-04-23T04:58:05;100291.16;;;7.53;93.74
63654;BME280;49809;47.418;19.080;2023-04-23T05:01:29;100298.47;;;7.63;93.08
63654;BME280;49809;47.418;19.080;2023-04-23T05:04:53;100289.47;;;7.87;92.28
63654;BME280;49809;47.418;19.080;2023-04-23T05:08:28;100292.41;;;8.02;90.00
63654;BME280;49809;47.418;19.080;2023-04-23T05:11:58;100288.56;;;8.21;84.48
63654;BME280;49809;47.418;19.080;2023-04-23T05:15:46;100297.81;;;8.36;83.70
63654;BME280;49809;47.418;19.080;2023-04-23T05:19:22;100296.16;;;8.46;83.81
63654;BME280;49809;47.418;19.080;2023-04-23T05:22:26;100298.81;;;8.63;82.06
63654;BME280;49809;47.418;19.080;2023-04-23T05:25:58;100296.44;;;8.78;80.93
63654;BME280;49809;47.418;19.080;2023-04-23T05:29:07;100297.56;;;8.99;78.80
63654;BME280;49809;47.418;19.080;2023-04-23T05:32:30;100301.78;;;9.16;76.91
63654;BME280;49809;47.418;19.080;2023-04-23T05:35:54;100289.38;;;9.34;75.68
63654;BME280;49809;47.418;19.080;2023-04-23T05:38:59;100296.53;;;9.55;75.93
63654;BME280;49809;47.418;19.080;2023-04-23T05:42:41;100297.28;;;9.72;74.36
63654;BME280;49809;47.418;19.080;2023-04-23T05:46:16;100290.66;;;9.91;73.08
63654;BME280;49809;47.418;19.080;2023-04-23T05:49:40;100295.38;;;10.11;72.22
63654;BME280;49809;47.418;19.080;2023-04-23T05:52:44;100295.81;;;10.25;72.44
63654;BME280;49809;47.418;19.080;2023-04-23T05:55:51;100294.87;;;10.36;70.64
63654;BME280;49809;47.418;19.080;2023-04-23T05:58:55;100293.22;;;10.57;70.64
63654;BME280;49809;47.418;19.080;2023-04-23T06:02:39;100290.75;;;10.77;68.98
63654;BME280;49809;47.418;19.080;2023-04-23T06:06:05;100296.97;;;10.93;68.78
63654;BME280;49809;47.418;19.080;2023-04-23T06:09:12;100301.87;;;11.11;68.03
63654;BME280;49809;47.418;19.080;2023-04-23T06:12:45;100303.38;;;11.39;68.01
63654;BME280;49809;47.418;19.080;2023-04-23T06:15:56;100310.09;;;11.51;67.36
63654;BME280;49809;47.418;19.080;2023-04-23T06:23:35;100296.78;;;11.93;67.06
63654;BME280;49809;47.418;19.080;2023-04-23T06:26:40;100303.22;;;12.17;66.88
63654;BME280;49809;47.418;19.080;2023-04-23T06:30:04;100304.34;;;12.42;65.36
63654;BME280;49809;47.418;19.080;2023-04-23T06:33:15;100306.72;;;12.33;62.01
63654;BME280;49809;47.418;19.080;2023-04-23T06:36:19;100301.97;;;12.50;63.09
63654;BME280;49809;47.418;19.080;2023-04-23T06:39:30;100313.16;;;12.68;62.45
63654;BME280;49809;47.418;19.080;2023-04-23T06:42:57;100315.78;;;12.93;62.26
63654;BME280;49809;47.418;19.080;2023-04-23T06:46:42;100305.97;;;13.08;60.40
63654;BME280;49809;47.418;19.080;2023-04-23T06:50:25;100308.88;;;13.42;59.13
63654;BME280;49809;47.418;19.080;2023-04-23T06:53:51;100306.97;;;13.58;60.47
63654;BME280;49809;47.418;19.080;2023-04-23T06:56:55;100295.91;;;13.95;58.66
63654;BME280;49809;47.418;19.080;2023-04-23T07:00:32;100302.72;;;14.21;57.21
63654;BME280;49809;47.418;19.080;2023-04-23T07:03:40;100295.19;;;14.39;55.67
63654;BME280;49809;47.418;19.080;2023-04-23T07:06:51;100297.69;;;14.64;53.97
63654;BME280;49809;47.418;19.080;2023-04-23T07:09:58;100298.50;;;14.93;54.98
63654;BME280;49809;47.418;19.080;2023-04-23T07:13:26;100300.25;;;15.37;53.54
63654;BME280;49809;47.418;19.080;2023-04-23T07:16:37;100295.53;;;15.57;53.88
63654;BME280;49809;47.418;19.080;2023-04-23T07:20:21;100295.50;;;15.81;50.55
63654;BME280;49809;47.418;19.080;2023-04-23T07:23:58;100289.34;;;16.04;48.37
63654;BME280;49809;47.418;19.080;2023-04-23T07:28:06;100294.25;;;16.53;46.09
63654;BME280;49809;47.418;19.080;2023-04-23T07:31:35;100283.94;;;16.09;47.53
63654;BME280;49809;47.418;19.080;2023-04-23T07:35:03;100287.69;;;16.27;49.85
63654;BME280;49809;47.418;19.080;2023-04-23T07:38:51;100287.00;;;17.05;50.02
63654;BME280;49809;47.418;19.080;2023-04-23T07:41:54;100283.81;;;17.35;46.54
63654;BME280;49809;47.418;19.080;2023-04-23T07:45:44;100283.00;;;17.21;47.36
63654;BME280;49809;47.418;19.080;2023-04-23T07:49:07;100282.16;;;17.80;45.53
63654;BME280;49809;47.418;19.080;2023-04-23T07:52:19;100277.16;;;18.37;45.86
63654;BME280;49809;47.418;19.080;2023-04-23T07:55:57;100277.06;;;18.64;41.72
63654;BME280;49809;47.418;19.080;2023-04-23T07:59:18;100280.47;;;18.79;42.16
63654;BME280;49809;47.418;19.080;2023-04-23T08:02:57;100275.13;;;18.56;41.10
63654;BME280;49809;47.418;19.080;2023-04-23T08:06:01;100269.62;;;20.19;41.30
63654;BME280;49809;47.418;19.080;2023-04-23T08:09:08;100264.81;;;21.02;39.47
63654;BME280;49809;47.418;19.080;2023-04-23T08:12:27;100276.75;;;20.75;38.22
63654;BME280;49809;47.418;19.080;2023-04-23T08:15:59;100274.97;;;21.52;35.95
63654;BME280;49809;47.418;19.080;2023-04-23T08:19:20;100276.16;;;21.92;34.15
63654;BME280;49809;47.418;19.080;2023-04-23T08:22:58;100273.00;;;21.61;36.16
63654;BME280;49809;47.418;19.080;2023-04-23T08:26:45;100275.25;;;22.71;33.81
63654;BME280;49809;47.418;19.080;2023-04-23T08:30:04;100262.81;;;23.60;33.13
63654;BME280;49809;47.418;19.080;2023-04-23T08:33:43;100261.91;;;22.54;33.96
63654;BME280;49809;47.418;19.080;2023-04-23T08:37:03;100257.94;;;23.42;30.77
63654;BME280;49809;47.418;19.080;2023-04-23T08:40:35;100254.59;;;23.57;30.99
63654;BME280;49809;47.418;19.080;2023-04-23T08:47:16;100251.06;;;24.88;29.44
63654;BME280;49809;47.418;19.080;2023-04-23T08:54:04;100249.19;;;24.77;27.84
63654;BME280;49809;47.418;19.080;2023-04-23T09:04:46;100239.00;;;26.37;26.71
63654;BME280;49809;47.418;19.080;2023-04-23T09:08:07;100241.53;;;25.92;25.80
63654;BME280;49809;47.418;19.080;2023-04-23T09:11:28;100231.13;;;25.59;26.45
63654;BME280;49809;47.418;19.080;2023-04-23T09:14:59;100236.41;;;26.06;27.62
63654;BME280;49809;47.418;19.080;2023-04-23T09:25:50;100226.13;;;27.18;24.54
63654;BME280;49809;47.418;19.080;2023-04-23T09:29:20;100226.00;;;26.89;25.50
63654;BME280;49809;47.418;19.080;2023-04-23T09:32:41;100212.53;;;27.71;24.72
63654;BME280;49809;47.418;19.080;2023-04-23T09:36:07;100214.00;;;27.65;23.14
63654;BME280;49809;47.418;19.080;2023-04-23T09:39:28;100213.19;;;28.21;24.60
63654;BME280;49809;47.418;19.080;2023-04-23T09:42:56;100210.47;;;27.91;23.16
63654;BME280;49809;47.418;19.080;2023-04-23T09:50:07;100213.72;;;28.70;21.62
63654;BME280;49809;47.418;19.080;2023-04-23T09:53:26;100207.28;;;28.52;20.48
63654;BME280;49809;47.418;19.080;2023-04-23T09:57:07;100209.87;;;28.38;21.61
63654;BME280;49809;47.418;19.080;2023-04-23T10:00:35;100206.94;;;27.60;22.27
63654;BME280;49809;47.418;19.080;2023-04-23T10:03:53;100203.28;;;27.76;22.40
63654;BME280;49809;47.418;19.080;2023-04-23T10:07:22;100194.88;;;28.51;20.23
63654;BME280;49809;47.418;19.080;2023-04-23T10:10:43;100186.88;;;25.90;22.95
63654;BME280;49809;47.418;19.080;2023-04-23T10:14:21;100185.25;;;28.27;19.76
63654;BME280;49809;47.418;19.080;2023-04-23T10:17:48;100168.66;;;28.76;18.96
63654;BME280;49809;47.418;19.080;2023-04-23T10:21:11;100178.50;;;28.14;20.47
63654;BME280;49809;47.418;19.080;2023-04-23T10:24:51;100172.66;;;28.89;19.92
63654;BME280;49809;47.418;19.080;2023-04-23T10:28:42;100175.16;;;29.12;19.92
63654;BME280;49809;47.418;19.080;2023-04-23T10:32:08;100164.72;;;29.25;19.03
63654;BME280;49809;47.418;19.080;2023-04-23T10:36:01;100167.13;;;30.09;17.60
63654;BME280;49809;47.418;19.080;2023-04-23T10:39:21;100167.94;;;30.28;17.83
63654;BME280;49809;47.418;19.080;2023-04-23T10:42:55;100169.81;;;30.02;17.25
63654;BME280;49809;47.418;19.080;2023-04-23T10:46:28;100166.47;;;29.51;16.98
63654;BME280;49809;47.418;19.080;2023-04-23T10:49:49;100154.34;;;28.46;17.48
63654;BME280;49809;47.418;19.080;2023-04-23T10:53:31;100152.56;;;28.24;18.96
63654;BME280;49809;47.418;19.080;2023-04-23T10:57:00;100147.22;;;29.29;17.90
63654;BME280;49809;47.418;19.080;2023-04-23T11:00:48;100145.53;;;27.56;18.63
63654;BME280;49809;47.418;19.080;2023-04-23T11:04:28;100145.37;;;29.37;17.87
63654;BME280;49809;47.418;19.080;2023-04-23T11:08:06;100141.56;;;28.98;19.17
63654;BME280;49809;47.418;19.080;2023-04-23T11:11:58;100142.94;;;26.88;20.67
63654;BME280;49809;47.418;19.080;2023-04-23T11:15:19;100142.78;;;28.56;18.16
63654;BME280;49809;47.418;19.080;2023-04-23T11:22:33;100136.03;;;29.38;18.55
63654;BME280;49809;47.418;19.080;2023-04-23T11:26:07;100136.16;;;29.70;18.45
63654;BME280;49809;47.418;19.080;2023-04-23T11:29:29;100142.81;;;29.76;18.79
63654;BME280;49809;47.418;19.080;2023-04-23T11:32:48;100139.34;;;27.06;20.91
63654;BME280;49809;47.418;19.080;2023-04-23T11:36:27;100120.12;;;26.69;22.47
63654;BME280;49809;47.418;19.080;2023-04-23T11:40:06;100126.81;;;29.06;20.50
63654;BME280;49809;47.418;19.080;2023-04-23T11:43:27;100130.81;;;27.04;21.38
63654;BME280;49809;47.418;19.080;2023-04-23T11:47:12;100133.69;;;26.24;23.70
63654;BME280;49809;47.418;19.080;2023-04-23T11:50:47;100119.31;;;27.14;22.37
63654;BME280;49809;47.418;19.080;2023-04-23T11:54:24;100110.31;;;26.61;22.66
63654;BME280;49809;47.418;19.080;2023-04-23T11:58:04;100106.72;;;26.80;21.33
63654;BME280;49809;47.418;19.080;2023-04-23T12:01:46;100101.63;;;27.54;20.85
63654;BME280;49809;47.418;19.080;2023-04-23T12:09:44;100100.38;;;28.55;20.86
63654;BME280;49809;47.418;19.080;2023-04-23T12:13:32;100095.19;;;28.43;20.24
63654;BME280;49809;47.418;19.080;2023-04-23T12:16:57;100085.50;;;28.93;19.53
63654;BME280;49809;47.418;19.080;2023-04-23T12:20:25;100081.78;;;26.97;21.83
63654;BME280;49809;47.418;19.080;2023-04-23T12:24:02;100074.31;;;27.47;22.42
63654;BME280;49809;47.418;19.080;2023-04-23T12:27:43;100076.03;;;27.29;22.13
63654;BME280;49809;47.418;19.080;2023-04-23T12:31:05;100079.47;;;29.28;19.47
63654;BME280;49809;47.418;19.080;2023-04-23T12:34:24;100080.31;;;27.59;20.51
63654;BME280;49809;47.418;19.080;2023-04-23T12:37:41;100062.50;;;27.65;20.94
63654;BME280;49809;47.418;19.080;2023-04-23T12:41:19;100075.88;;;26.92;22.13
63654;BME280;49809;47.418;19.080;2023-04-23T12:44:44;100070.81;;;25.41;22.80
63654;BME280;49809;47.418;19.080;2023-04-23T12:48:33;100060.00;;;25.41;23.60
63654;BME280;49809;47.418;19.080;2023-04-23T12:52:11;100063.19;;;24.93;23.54
63654;BME280;49809;47.418;19.080;2023-04-23T12:55:43;100053.72;;;25.57;23.20
63654;BME280;49809;47.418;19.080;2023-04-23T12:59:16;100054.00;;;25.71;23.34
63654;BME280;49809;47.418;19.080;2023-04-23T13:03:11;100047.69;;;25.28;24.14
63654;BME280;49809;47.418;19.080;2023-04-23T13:06:39;100039.28;;;25.33;23.88
63654;BME280;49809;47.418;19.080;2023-04-23T13:10:33;100036.87;;;25.67;22.43
63654;BME280;49809;47.418;19.080;2023-04-23T13:14:09;100040.75;;;24.92;23.16
63654;BME280;49809;47.418;19.080;2023-04-23T13:17:54;100025.75;;;25.72;22.17
63654;BME280;49809;47.418;19.080;2023-04-23T13:21:17;100032.16;;;25.06;22.25
63654;BME280;49809;47.418;19.080;2023-04-23T13:24:47;100015.62;;;24.45;23.80
63654;BME280;49809;47.418;19.080;2023-04-23T13:28:24;100018.38;;;24.01;24.10
63654;BME280;49809;47.418;19.080;2023-04-23T13:31:42;100013.25;;;24.12;24.63
63654;BME280;49809;47.418;19.080;2023-04-23T13:35:18;100012.94;;;24.29;24.75
63654;BME280;49809;47.418;19.080;2023-04-23T13:38:45;99995.84;;;24.25;24.65
63654;BME280;49809;47.418;19.080;2023-04-23T13:42:05;99996.41;;;24.50;24.51
63654;BME280;49809;47.418;19.080;2023-04-23T13:45:53;99991.78;;;24.50;24.96
63654;BME280;49809;47.418;19.080;2023-04-23T13:49:16;99990.84;;;24.58;23.86
63654;BME280;49809;47.418;19.080;2023-04-23T13:52:53;99980.97;;;23.88;24.75
63654;BME280;49809;47.418;19.080;2023-04-23T13:56:11;99979.38;;;23.71;25.02
63654;BME280;49809;47.418;19.080;2023-04-23T13:59:40;99981.41;;;23.46;25.64
63654;BME280;49809;47.418;19.080;2023-04-23T14:03:20;99983.78;;;23.63;25.57
63654;BME280;49809;47.418;19.080;2023-04-23T14:10:28;99974.41;;;23.73;25.81
63654;BME280;49809;47.418;19.080;2023-04-23T14:14:05;99962.44;;;23.58;24.86
63654;BME280;49809;47.418;19.080;2023-04-23T14:17:23;99967.97;;;23.22;24.90
63654;BME280;49809;47.418;19.080;2023-04-23T14:20:41;99972.16;;;22.79;26.01
63654;BME280;49809;47.418;19.080;2023-04-23T14:27:40;99953.25;;;22.67;26.00
63654;BME280;49809;47.418;19.080;2023-04-23T14:31:08;99966.84;;;22.46;25.82
63654;BME280;49809;47.418;19.080;2023-04-23T14:34:29;99958.22;;;22.17;26.97
63654;BME280;49809;47.418;19.080;2023-04-23T14:37:46;99954.59;;;22.00;26.36
63654;BME280;49809;47.418;19.080;2023-04-23T14:41:21;99945.94;;;21.50;27.82
63654;BME280;49809;47.418;19.080;2023-04-23T14:44:54;99941.75;;;21.85;27.68
63654;BME280;49809;47.418;19.080;2023-04-23T14:48:19;99944.31;;;22.27;26.99
63654;BME280;49809;47.418;19.080;2023-04-23T14:51:44;99937.84;;;22.68;26.86
63654;BME280;49809;47.418;19.080;2023-04-23T14:55:17;99938.63;;;22.56;26.66
63654;BME280;49809;47.418;19.080;2023-04-23T14:58:51;99937.66;;;22.36;27.76
63654;BME280;49809;47.418;19.080;2023-04-23T15:02:13;99927.41;;;22.54;27.58
63654;BME280;49809;47.418;19.080;2023-04-23T15:05:33;99929.53;;;23.13;26.23
63654;BME280;49809;47.418;19.080;2023-04-23T15:09:11;99929.44;;;23.37;25.32
63654;BME280;49809;47.418;19.080;2023-04-23T15:12:53;99931.31;;;23.64;25.54
63654;BME280;49809;47.418;19.080;2023-04-23T15:16:36;99923.06;;;23.89;26.29
63654;BME280;49809;47.418;19.080;2023-04-23T15:20:12;99926.03;;;23.83;25.67
63654;BME280;49809;47.418;19.080;2023-04-23T15:23:46;99937.28;;;23.70;25.47
63654;BME280;49809;47.418;19.080;2023-04-23T15:27:07;99928.03;;;23.43;25.48
63654;BME280;49809;47.418;19.080;2023-04-23T15:30:25;99924.81;;;23.37;26.12
63654;BME280;49809;47.418;19.080;2023-04-23T15:34:00;99926.09;;;23.28;26.54
63654;BME280;49809;47.418;19.080;2023-04-23T15:37:19;99914.91;;;23.14;26.82
63654;BME280;49809;47.418;19.080;2023-04-23T15:40:54;99908.44;;;23.03;25.65
63654;BME280;49809;47.418;19.080;2023-04-23T15:44:38;99909.06;;;23.12;26.96
63654;BME280;49809;47.418;19.080;2023-04-23T15:48:05;99905.72;;;23.03;26.51
63654;BME280;49809;47.418;19.080;2023-04-23T15:51:45;99899.09;;;23.00;27.87
63654;BME280;49809;47.418;19.080;2023-04-23T15:55:14;99894.06;;;23.42;26.12
63654;BME280;49809;47.418;19.080;2023-04-23T15:58:52;99901.34;;;23.54;25.37
63654;BME280;49809;47.418;19.080;2023-04-23T16:02:28;99895.13;;;23.53;26.08
63654;BME280;49809;47.418;19.080;2023-04-23T16:06:11;99894.53;;;23.16;25.32
63654;BME280;49809;47.418;19.080;2023-04-23T16:09:45;99891.63;;;22.81;26.09
63654;BME280;49809;47.418;19.080;2023-04-23T16:13:04;99892.25;;;22.50;25.86
63654;BME280;49809;47.418;19.080;2023-04-23T16:16:22;99893.03;;;22.39;25.68
63654;BME280;49809;47.418;19.080;2023-04-23T16:19:55;99890.25;;;22.23;26.44
63654;BME280;49809;47.418;19.080;2023-04-23T16:23:33;99890.38;;;22.27;26.76
63654;BME280;49809;47.418;19.080;2023-04-23T16:27:04;99889.47;;;22.10;27.51
63654;BME280;49809;47.418;19.080;2023-04-23T16:30:40;99886.13;;;22.01;27.48
63654;BME280;49809;47.418;19.080;2023-04-23T16:33:58;99888.50;;;21.70;28.09
63654;BME280;49809;47.418;19.080;2023-04-23T16:37:40;99884.72;;;21.59;28.19
63654;BME280;49809;47.418;19.080;2023-04-23T16:41:03;99882.81;;;21.27;29.01
63654;BME280;49809;47.418;19.080;2023-04-23T16:44:22;99881.00;;;21.18;29.07
63654;BME280;49809;47.418;19.080;2023-04-23T16:47:46;99881.31;;;20.96;29.42
63654;BME280;49809;47.418;19.080;2023-04-23T16:51:23;99877.75;;;20.71;29.87
63654;BME280;49809;47.418;19.080;2023-04-23T16:54:54;99876.81;;;20.47;30.69
63654;BME280;49809;47.418;19.080;2023-04-23T16:58:30;99866.78;;;20.26;30.90
63654;BME280;49809;47.418;19.080;2023-04-23T17:02:06;99869.38;;;20.14;31.13
63654;BME280;49809;47.418;19.080;2023-04-23T17:05:30;99870.91;;;19.94;31.44
63654;BME280;49809;47.418;19.080;2023-04-23T17:08:58;99873.56;;;19.65;32.94
63654;BME280;49809;47.418;19.080;2023-04-23T17:12:33;99870.94;;;19.39;33.32
63654;BME280;49809;47.418;19.080;2023-04-23T17:15:53;99868.44;;;19.17;34.10
63654;BME280;49809;47.418;19.080;2023-04-23T17:19:13;99860.44;;;18.91;35.08
63654;BME280;49809;47.418;19.080;2023-04-23T17:45:43;99868.44;;;17.30;41.64
63654;BME280;49809;47.418;19.080;2023-04-23T17:52:47;99878.28;;;16.76;44.46
63654;BME280;49809;47.418;19.080;2023-04-23T19:30:32;99921.22;;;13.73;52.69
63654;BME280;49809;47.418;19.080;2023-04-23T19:34:16;99922.56;;;13.71;52.73
63654;BME280;49809;47.418;19.080;2023-04-23T19:38:14;99917.00;;;13.67;52.75
63654;BME280;49809;47.418;19.080;2023-04-23T19:41:46;99925.84;;;13.63;53.41
63654;BME280;49809;47.418;19.080;2023-04-23T19:45:19;99929.09;;;13.55;53.44
63654;BME280;49809;47.418;19.080;2023-04-23T19:48:59;99922.81;;;13.45;54.01
63654;BME280;49809;47.418;19.080;2023-04-23T19:52:44;99915.97;;;13.34;53.94
63654;BME280;49809;47.418;19.080;2023-04-23T19:56:32;99923.75;;;13.26;54.21
63654;BME280;49809;47.418;19.080;2023-04-23T20:00:15;99913.47;;;13.14;55.49
63654;BME280;49809;47.418;19.080;2023-04-23T20:04:05;99911.38;;;13.06;55.87
63654;BME280;49809;47.418;19.080;2023-04-23T20:07:37;99910.37;;;12.97;55.73
63654;BME280;49809;47.418;19.080;2023-04-23T20:11:10;99913.09;;;12.87;56.50
63654;BME280;49809;47.418;19.080;2023-04-23T20:14:43;99906.75;;;12.83;55.85
63654;BME280;49809;47.418;19.080;2023-04-23T20:18:10;99899.63;;;12.73;56.51
63654;BME280;49809;47.418;19.080;2023-04-23T20:21:27;99913.69;;;12.74;57.57
63654;BME280;49809;47.418;19.080;2023-04-23T20:25:10;99894.84;;;12.70;57.51
63654;BME280;49809;47.418;19.080;2023-04-23T20:28:48;99898.91;;;12.62;58.20
63654;BME280;49809;47.418;19.080;2023-04-23T20:32:11;99895.97;;;12.59;57.59
63654;BME280;49809;47.418;19.080;2023-04-23T20:35:49;99891.47;;;12.59;57.66
63654;BME280;49809;47.418;19.080;2023-04-23T20:39:26;99888.53;;;12.61;57.40
63654;BME280;49809;47.418;19.080;2023-04-23T20:57:33;99885.31;;;12.64;56.17
63654;BME280;49809;47.418;19.080;2023-04-23T21:01:08;99884.50;;;12.69;56.38
63654;BME280;49809;47.418;19.080;2023-04-23T21:04:48;99887.41;;;12.77;57.01